sensor_id;sensor_type;location;lat;lon;timestamp;pressure;altitude;pressure_sealevel;temperature;humidity
68594;BME280;55563;52.416;13.548;2022-12-16T00:01:46;100741.66;;;-9.50;100.00
68594;BME280;55563;52.416;13.548;2022-12-16T00:03:50;100753.44;;;-9.49;100.00
68594;BME280;55563;52.416;13.548;2022-12-16T00:05:51;100749.69;;;-9.55;100.00
68594;BME280;55563;52.416;13.548;2022-12-16T00:07:54;100748.56;;;-9.62;100.00
68594;BME280;55563;52.416;13.548;2022-12-16T00:09:55;100755.69;;;-9.56;100.00
68594;BME280;55563;52.416;13.548;2022-12-16T00:11:55;100755.53;;;-9.64;100.00
68594;BME280;55563;52.416;13.548;2022-12-16T00:13:56;100761.66;;;-9.66;100.00
68594;BME280;55563;52.416;13.548;2022-12-16T00:15:57;100771.88;;;-9.78;100.00
68594;BME280;55563;52.416;13.548;2022-12-16T00:17:58;100765.25;;;-9.69;100.00
68594;BME280;55563;52.416;13.548;2022-12-16T00:19:58;100766.78;;;-9.57;100.00
68594;BME280;55563;52.416;13.548;2022-12-16T00:21:59;100771.94;;;-9.47;100.00
68594;BME280;55563;52.416;13.548;2022-12-16T00:24:00;100774.47;;;-9.47;100.00
68594;BME280;55563;52.416;13.548;2022-12-16T00:26:01;100782.09;;;-9.47;100.00
68594;BME280;55563;52.416;13.548;2022-12-16T00:28:02;100792.97;;;-9.45;100.00
68594;BME280;55563;52.416;13.548;2022-12-16T00:30:03;100776.38;;;-9.40;100.00
68594;BME280;55563;52.416;13.548;2022-12-16T00:32:04;100769.00;;;-9.43;100.00
68594;BME280;55563;52.416;13.548;2022-12-16T00:34:05;100779.94;;;-9.52;100.00
68594;BME280;55563;52.416;13.548;2022-12-16T00:36:06;100778.41;;;-9.64;100.00
68594;BME280;55563;52.416;13.548;2022-12-16T00:38:08;100784.97;;;-9.61;100.00
68594;BME280;55563;52.416;13.548;2022-12-16T00:40:09;100783.72;;;-9.67;100.00
68594;BME280;55563;52.416;13.548;2022-12-16T00:42:10;100779.56;;;-9.68;100.00
68594;BME280;55563;52.416;13.548;2022-12-16T00:44:10;100783.06;;;-9.69;100.00
68594;BME280;55563;52.416;13.548;2022-12-16T00:46:11;100777.91;;;-9.79;100.00
68594;BME280;55563;52.416;13.548;2022-12-16T00:48:12;100777.09;;;-9.79;100.00
68594;BME280;55563;52.416;13.548;2022-12-16T00:50:13;100774.03;;;-9.73;100.00
68594;BME280;55563;52.416;13.548;2022-12-16T00:52:13;100779.00;;;-9.72;100.00
68594;BME280;55563;52.416;13.548;2022-12-16T00:54:14;100773.50;;;-9.77;100.00
68594;BME280;55563;52.416;13.548;2022-12-16T00:56:15;100779.28;;;-9.75;100.00
68594;BME280;55563;52.416;13.548;2022-12-16T00:58:17;100775.91;;;-9.75;100.00
68594;BME280;55563;52.416;13.548;2022-12-16T01:00:18;100769.91;;;-9.74;100.00
68594;BME280;55563;52.416;13.548;2022-12-16T01:02:19;100767.31;;;-9.84;100.00
68594;BME280;55563;52.416;13.548;2022-12-16T01:04:19;100780.25;;;-9.87;100.00
68594;BME280;55563;52.416;13.548;2022-12-16T01:06:20;100778.13;;;-9.82;100.00
68594;BME280;55563;52.416;13.548;2022-12-16T01:08:21;100773.59;;;-9.78;100.00
68594;BME280;55563;52.416;13.548;2022-12-16T01:10:23;100774.41;;;-9.78;100.00
68594;BME280;55563;52.416;13.548;2022-12-16T01:12:24;100780.56;;;-9.80;100.00
68594;BME280;55563;52.416;13.548;2022-12-16T01:14:25;100787.72;;;-9.74;100.00
68594;BME280;55563;52.416;13.548;2022-12-16T01:16:25;100782.03;;;-9.78;100.00
68594;BME280;55563;52.416;13.548;2022-12-16T01:18:26;100782.09;;;-9.68;100.00
68594;BME280;55563;52.416;13.548;2022-12-16T01:20:27;100785.53;;;-9.79;100.00
68594;BME280;55563;52.416;13.548;2022-12-16T01:22:29;100780.03;;;-9.84;100.00
68594;BME280;55563;52.416;13.548;2022-12-16T01:24:30;100781.38;;;-9.80;100.00
68594;BME280;55563;52.416;13.548;2022-12-16T01:26:31;100783.38;;;-9.83;100.00
68594;BME280;55563;52.416;13.548;2022-12-16T01:28:32;100783.59;;;-9.86;100.00
68594;BME280;55563;52.416;13.548;2022-12-16T01:30:32;100783.38;;;-9.83;100.00
68594;BME280;55563;52.416;13.548;2022-12-16T01:32:33;100782.03;;;-9.78;100.00
68594;BME280;55563;52.416;13.548;2022-12-16T01:34:34;100781.94;;;-9.76;100.00
68594;BME280;55563;52.416;13.548;2022-12-16T01:36:35;100787.28;;;-9.79;100.00
68594;BME280;55563;52.416;13.548;2022-12-16T01:38:36;100780.81;;;-9.83;100.00
68594;BME280;55563;52.416;13.548;2022-12-16T01:40:37;100781.88;;;-9.86;100.00
68594;BME280;55563;52.416;13.548;2022-12-16T01:42:37;100786.41;;;-9.89;100.00
68594;BME280;55563;52.416;13.548;2022-12-16T01:44:42;100773.25;;;-9.94;100.00
68594;BME280;55563;52.416;13.548;2022-12-16T01:46:49;100784.34;;;-9.95;100.00
68594;BME280;55563;52.416;13.548;2022-12-16T01:48:54;100784.22;;;-9.94;100.00
68594;BME280;55563;52.416;13.548;2022-12-16T01:51:01;100785.47;;;-9.88;100.00
68594;BME280;55563;52.416;13.548;2022-12-16T01:53:03;100782.44;;;-10.03;100.00
68594;BME280;55563;52.416;13.548;2022-12-16T01:55:10;100779.88;;;-10.03;100.00
68594;BME280;55563;52.416;13.548;2022-12-16T01:57:15;100776.16;;;-9.99;100.00
68594;BME280;55563;52.416;13.548;2022-12-16T01:59:17;100791.16;;;-9.96;100.00
68594;BME280;55563;52.416;13.548;2022-12-16T02:01:20;100777.72;;;-10.07;100.00
68594;BME280;55563;52.416;13.548;2022-12-16T02:03:22;100792.16;;;-10.08;100.00
68594;BME280;55563;52.416;13.548;2022-12-16T02:05:23;100782.97;;;-9.99;100.00
68594;BME280;55563;52.416;13.548;2022-12-16T02:07:26;100776.81;;;-9.97;100.00
68594;BME280;55563;52.416;13.548;2022-12-16T02:09:26;100771.06;;;-9.99;100.00
68594;BME280;55563;52.416;13.548;2022-12-16T02:16:37;100768.38;;;-9.97;100.00
68594;BME280;55563;52.416;13.548;2022-12-16T02:23:41;100761.50;;;-10.06;100.00
68594;BME280;55563;52.416;13.548;2022-12-16T02:26:03;100763.31;;;-9.97;100.00
68594;BME280;55563;52.416;13.548;2022-12-16T02:30:59;100764.56;;;-9.92;100.00
68594;BME280;55563;52.416;13.548;2022-12-16T02:35:56;100770.38;;;-10.01;100.00
68594;BME280;55563;52.416;13.548;2022-12-16T02:38:24;100760.97;;;-10.10;100.00
68594;BME280;55563;52.416;13.548;2022-12-16T02:40:31;100759.88;;;-10.17;100.00
68594;BME280;55563;52.416;13.548;2022-12-16T02:42:46;100760.97;;;-10.10;100.00
68594;BME280;55563;52.416;13.548;2022-12-16T02:44:56;100760.59;;;-10.05;100.00
68594;BME280;55563;52.416;13.548;2022-12-16T02:47:01;100760.22;;;-10.01;100.00
68594;BME280;55563;52.416;13.548;2022-12-16T02:51:24;100768.91;;;-10.03;100.00
68594;BME280;55563;52.416;13.548;2022-12-16T02:53:27;100766.22;;;-10.02;100.00
68594;BME280;55563;52.416;13.548;2022-12-16T02:55:32;100765.44;;;-10.02;100.00
68594;BME280;55563;52.416;13.548;2022-12-16T02:58:12;100759.88;;;-10.17;100.00
68594;BME280;55563;52.416;13.548;2022-12-16T03:00:03;100757.75;;;-10.12;100.00
68594;BME280;55563;52.416;13.548;2022-12-16T03:02:15;100754.78;;;-10.17;100.00
68594;BME280;55563;52.416;13.548;2022-12-16T03:04:24;100760.03;;;-10.30;100.00
68594;BME280;55563;52.416;13.548;2022-12-16T03:06:29;100758.22;;;-10.39;100.00
68594;BME280;55563;52.416;13.548;2022-12-16T03:08:35;100745.97;;;-10.34;100.00
68594;BME280;55563;52.416;13.548;2022-12-16T03:11:05;100746.72;;;-10.22;100.00
68594;BME280;55563;52.416;13.548;2022-12-16T03:13:10;100748.25;;;-10.10;100.00
68594;BME280;55563;52.416;13.548;2022-12-16T03:15:16;100754.31;;;-10.01;100.00
68594;BME280;55563;52.416;13.548;2022-12-16T03:17:20;100752.38;;;-9.98;100.00
68594;BME280;55563;52.416;13.548;2022-12-16T03:19:23;100753.94;;;-9.97;100.00
68594;BME280;55563;52.416;13.548;2022-12-16T03:21:29;100751.13;;;-10.03;100.00
68594;BME280;55563;52.416;13.548;2022-12-16T03:23:38;100745.72;;;-10.10;100.00
68594;BME280;55563;52.416;13.548;2022-12-16T03:25:44;100747.31;;;-10.09;100.00
68594;BME280;55563;52.416;13.548;2022-12-16T03:27:55;100737.56;;;-9.93;100.00
68594;BME280;55563;52.416;13.548;2022-12-16T03:30:08;100739.50;;;-9.96;100.00
68594;BME280;55563;52.416;13.548;2022-12-16T03:32:20;100739.78;;;-9.99;100.00
68594;BME280;55563;52.416;13.548;2022-12-16T03:34:38;100734.94;;;-10.02;100.00
68594;BME280;55563;52.416;13.548;2022-12-16T03:36:43;100731.00;;;-10.06;100.00
68594;BME280;55563;52.416;13.548;2022-12-16T03:38:49;100734.25;;;-10.04;100.00
68594;BME280;55563;52.416;13.548;2022-12-16T03:41:10;100735.28;;;-10.07;100.00
68594;BME280;55563;52.416;13.548;2022-12-16T03:43:14;100730.56;;;-10.11;100.00
68594;BME280;55563;52.416;13.548;2022-12-16T03:45:19;100725.22;;;-10.18;100.00
68594;BME280;55563;52.416;13.548;2022-12-16T03:47:26;100726.69;;;-10.16;100.00
68594;BME280;55563;52.416;13.548;2022-12-16T03:49:27;100728.03;;;-10.11;100.00
68594;BME280;55563;52.416;13.548;2022-12-16T03:51:28;100733.00;;;-10.10;100.00
68594;BME280;55563;52.416;13.548;2022-12-16T03:53:29;100734.06;;;-10.12;100.00
68594;BME280;55563;52.416;13.548;2022-12-16T03:55:29;100734.88;;;-10.12;100.00
68594;BME280;55563;52.416;13.548;2022-12-16T03:57:31;100740.06;;;-10.13;100.00
68594;BME280;55563;52.416;13.548;2022-12-16T03:59:32;100739.56;;;-10.17;100.00
68594;BME280;55563;52.416;13.548;2022-12-16T04:01:32;100740.38;;;-10.07;100.00
68594;BME280;55563;52.416;13.548;2022-12-16T04:03:33;100744.41;;;-10.04;100.00
68594;BME280;55563;52.416;13.548;2022-12-16T04:05:34;100745.44;;;-10.07;100.00
68594;BME280;55563;52.416;13.548;2022-12-16T04:07:35;100744.09;;;-10.11;100.00
68594;BME280;55563;52.416;13.548;2022-12-16T04:09:36;100744.91;;;-10.10;100.00
68594;BME280;55563;52.416;13.548;2022-12-16T04:11:36;100751.97;;;-10.14;100.00
68594;BME280;55563;52.416;13.548;2022-12-16T04:13:57;100754.91;;;-10.19;100.00
68594;BME280;55563;52.416;13.548;2022-12-16T04:16:18;100752.19;;;-10.27;100.00
68594;BME280;55563;52.416;13.548;2022-12-16T04:18:39;100752.47;;;-10.20;100.00
68594;BME280;55563;52.416;13.548;2022-12-16T04:21:01;100759.56;;;-10.24;100.00
68594;BME280;55563;52.416;13.548;2022-12-16T04:23:24;100767.78;;;-10.31;100.00
68594;BME280;55563;52.416;13.548;2022-12-16T04:25:46;100764.06;;;-10.27;100.00
68594;BME280;55563;52.416;13.548;2022-12-16T04:27:47;100765.66;;;-10.26;100.00
68594;BME280;55563;52.416;13.548;2022-12-16T04:29:47;100760.25;;;-10.22;100.00
68594;BME280;55563;52.416;13.548;2022-12-16T04:32:08;100762.94;;;-10.13;100.00
68594;BME280;55563;52.416;13.548;2022-12-16T04:34:09;100770.41;;;-10.22;100.00
68594;BME280;55563;52.416;13.548;2022-12-16T04:36:25;100766.63;;;-10.27;100.00
68594;BME280;55563;52.416;13.548;2022-12-16T04:38:45;100768.34;;;-10.28;100.00
68594;BME280;55563;52.416;13.548;2022-12-16T04:41:06;100765.09;;;-10.30;100.00
68594;BME280;55563;52.416;13.548;2022-12-16T04:43:27;100769.72;;;-10.24;100.00
68594;BME280;55563;52.416;13.548;2022-12-16T04:45:48;100767.97;;;-10.23;100.00
68594;BME280;55563;52.416;13.548;2022-12-16T04:48:08;100772.41;;;-10.36;100.00
68594;BME280;55563;52.416;13.548;2022-12-16T04:50:29;100781.19;;;-10.40;100.00
68594;BME280;55563;52.416;13.548;2022-12-16T04:52:50;100770.09;;;-10.39;100.00
68594;BME280;55563;52.416;13.548;2022-12-16T04:55:11;100767.56;;;-10.39;100.00
68594;BME280;55563;52.416;13.548;2022-12-16T04:57:32;100773.06;;;-10.55;100.00
68594;BME280;55563;52.416;13.548;2022-12-16T04:59:53;100779.38;;;-10.49;100.00
68594;BME280;55563;52.416;13.548;2022-12-16T05:02:13;100777.63;;;-10.38;100.00
68594;BME280;55563;52.416;13.548;2022-12-16T05:04:34;100776.91;;;-10.40;100.00
68594;BME280;55563;52.416;13.548;2022-12-16T05:06:54;100775.41;;;-10.31;100.00
68594;BME280;55563;52.416;13.548;2022-12-16T05:09:15;100772.78;;;-10.41;100.00
68594;BME280;55563;52.416;13.548;2022-12-16T05:11:36;100777.72;;;-10.39;100.00
68594;BME280;55563;52.416;13.548;2022-12-16T05:13:56;100780.69;;;-10.23;100.00
68594;BME280;55563;52.416;13.548;2022-12-16T05:16:17;100778.59;;;-10.18;100.00
68594;BME280;55563;52.416;13.548;2022-12-16T05:18:37;100782.59;;;-10.16;100.00
68594;BME280;55563;52.416;13.548;2022-12-16T05:20:59;100783.88;;;-10.21;100.00
68594;BME280;55563;52.416;13.548;2022-12-16T05:23:21;100778.63;;;-10.29;100.00
68594;BME280;55563;52.416;13.548;2022-12-16T05:25:42;100772.88;;;-10.31;100.00
68594;BME280;55563;52.416;13.548;2022-12-16T05:28:02;100778.88;;;-10.32;100.00
68594;BME280;55563;52.416;13.548;2022-12-16T05:30:23;100776.63;;;-10.26;100.00
68594;BME280;55563;52.416;13.548;2022-12-16T05:32:47;100785.22;;;-10.38;100.00
68594;BME280;55563;52.416;13.548;2022-12-16T05:35:08;100789.84;;;-10.32;100.00
68594;BME280;55563;52.416;13.548;2022-12-16T05:37:28;100788.22;;;-10.33;100.00
68594;BME280;55563;52.416;13.548;2022-12-16T05:39:49;100790.50;;;-10.30;100.00
68594;BME280;55563;52.416;13.548;2022-12-16T05:42:10;100787.84;;;-10.28;100.00
68594;BME280;55563;52.416;13.548;2022-12-16T05:44:31;100786.78;;;-10.26;100.00
68594;BME280;55563;52.416;13.548;2022-12-16T05:46:51;100793.31;;;-10.33;100.00
68594;BME280;55563;52.416;13.548;2022-12-16T05:49:12;100799.84;;;-10.30;100.00
68594;BME280;55563;52.416;13.548;2022-12-16T05:51:32;100797.81;;;-10.36;100.00
68594;BME280;55563;52.416;13.548;2022-12-16T05:53:53;100799.56;;;-10.37;100.00
68594;BME280;55563;52.416;13.548;2022-12-16T05:56:14;100805.44;;;-10.36;100.00
68594;BME280;55563;52.416;13.548;2022-12-16T05:58:35;100804.53;;;-10.46;100.00
68594;BME280;55563;52.416;13.548;2022-12-16T06:00:55;100807.19;;;-10.37;100.00
68594;BME280;55563;52.416;13.548;2022-12-16T06:03:16;100813.88;;;-10.36;100.00
68594;BME280;55563;52.416;13.548;2022-12-16T06:05:36;100819.41;;;-10.42;100.00
68594;BME280;55563;52.416;13.548;2022-12-16T06:07:57;100827.59;;;-10.38;100.00
68594;BME280;55563;52.416;13.548;2022-12-16T06:10:18;100828.16;;;-10.35;100.00
68594;BME280;55563;52.416;13.548;2022-12-16T06:12:38;100836.59;;;-10.34;100.00
68594;BME280;55563;52.416;13.548;2022-12-16T06:14:59;100833.94;;;-10.33;100.00
68594;BME280;55563;52.416;13.548;2022-12-16T06:17:20;100842.72;;;-10.37;100.00
68594;BME280;55563;52.416;13.548;2022-12-16T06:19:41;100851.28;;;-10.38;100.00
68594;BME280;55563;52.416;13.548;2022-12-16T06:22:01;100856.44;;;-10.28;100.00
68594;BME280;55563;52.416;13.548;2022-12-16T06:24:22;100862.69;;;-10.32;100.00
68594;BME280;55563;52.416;13.548;2022-12-16T06:26:42;100865.44;;;-10.35;100.00
68594;BME280;55563;52.416;13.548;2022-12-16T06:29:03;100866.16;;;-10.33;100.00
68594;BME280;55563;52.416;13.548;2022-12-16T06:31:24;100878.38;;;-10.27;100.00
68594;BME280;55563;52.416;13.548;2022-12-16T06:33:44;100880.69;;;-10.35;100.00
68594;BME280;55563;52.416;13.548;2022-12-16T06:36:05;100882.44;;;-10.36;100.00
68594;BME280;55563;52.416;13.548;2022-12-16T06:38:26;100882.78;;;-10.40;100.00
68594;BME280;55563;52.416;13.548;2022-12-16T06:40:47;100885.00;;;-10.36;100.00
68594;BME280;55563;52.416;13.548;2022-12-16T06:43:07;100895.16;;;-10.36;100.00
68594;BME280;55563;52.416;13.548;2022-12-16T06:45:28;100889.13;;;-10.35;100.00
68594;BME280;55563;52.416;13.548;2022-12-16T06:47:49;100901.25;;;-10.38;100.00
68594;BME280;55563;52.416;13.548;2022-12-16T06:50:10;100903.22;;;-10.42;100.00
68594;BME280;55563;52.416;13.548;2022-12-16T06:52:31;100899.28;;;-10.35;100.00
68594;BME280;55563;52.416;13.548;2022-12-16T06:54:51;100903.56;;;-10.35;100.00
68594;BME280;55563;52.416;13.548;2022-12-16T06:57:12;100903.09;;;-10.40;100.00
68594;BME280;55563;52.416;13.548;2022-12-16T06:59:33;100906.34;;;-10.27;100.00
68594;BME280;55563;52.416;13.548;2022-12-16T07:01:53;100911.53;;;-10.29;100.00
68594;BME280;55563;52.416;13.548;2022-12-16T07:04:14;100917.53;;;-10.30;100.00
68594;BME280;55563;52.416;13.548;2022-12-16T07:06:34;100919.97;;;-10.28;100.00
68594;BME280;55563;52.416;13.548;2022-12-16T07:08:55;100923.06;;;-10.25;100.00
68594;BME280;55563;52.416;13.548;2022-12-16T07:11:16;100921.78;;;-10.19;100.00
68594;BME280;55563;52.416;13.548;2022-12-16T07:13:36;100924.91;;;-10.16;100.00
68594;BME280;55563;52.416;13.548;2022-12-16T07:15:57;100927.44;;;-10.16;100.00
68594;BME280;55563;52.416;13.548;2022-12-16T07:18:17;100935.19;;;-10.17;100.00
68594;BME280;55563;52.416;13.548;2022-12-16T07:20:38;100930.53;;;-10.12;100.00
68594;BME280;55563;52.416;13.548;2022-12-16T07:22:59;100937.00;;;-10.08;100.00
68594;BME280;55563;52.416;13.548;2022-12-16T07:25:19;100949.44;;;-10.05;100.00
68594;BME280;55563;52.416;13.548;2022-12-16T07:27:44;100950.25;;;-10.04;100.00
68594;BME280;55563;52.416;13.548;2022-12-16T07:30:05;100962.06;;;-10.03;100.00
68594;BME280;55563;52.416;13.548;2022-12-16T07:32:26;100961.00;;;-10.01;100.00
68594;BME280;55563;52.416;13.548;2022-12-16T07:34:47;100962.06;;;-10.03;100.00
68594;BME280;55563;52.416;13.548;2022-12-16T07:37:07;100965.25;;;-10.01;100.00
68594;BME280;55563;52.416;13.548;2022-12-16T07:39:28;100978.22;;;-9.93;100.00
68594;BME280;55563;52.416;13.548;2022-12-16T07:41:49;100981.66;;;-9.83;100.00
68594;BME280;55563;52.416;13.548;2022-12-16T07:44:09;100980.72;;;-9.82;100.00
68594;BME280;55563;52.416;13.548;2022-12-16T07:46:30;100982.34;;;-9.81;100.00
68594;BME280;55563;52.416;13.548;2022-12-16T07:48:50;100994.03;;;-9.79;100.00
68594;BME280;55563;52.416;13.548;2022-12-16T07:51:11;100991.34;;;-9.77;100.00
68594;BME280;55563;52.416;13.548;2022-12-16T07:53:32;100997.13;;;-9.75;100.00
68594;BME280;55563;52.416;13.548;2022-12-16T07:55:52;100996.06;;;-9.73;100.00
68594;BME280;55563;52.416;13.548;2022-12-16T07:58:13;100996.06;;;-9.73;100.00
68594;BME280;55563;52.416;13.548;2022-12-16T08:00:34;100994.22;;;-9.71;100.00
68594;BME280;55563;52.416;13.548;2022-12-16T08:02:55;101001.38;;;-9.64;100.00
68594;BME280;55563;52.416;13.548;2022-12-16T08:05:15;101004.38;;;-9.59;100.00
68594;BME280;55563;52.416;13.548;2022-12-16T08:07:39;100998.47;;;-9.60;100.00
68594;BME280;55563;52.416;13.548;2022-12-16T08:09:59;100999.03;;;-9.56;100.00
68594;BME280;55563;52.416;13.548;2022-12-16T08:12:20;101011.41;;;-9.52;100.00
68594;BME280;55563;52.416;13.548;2022-12-16T08:14:40;101012.09;;;-9.50;100.00
68594;BME280;55563;52.416;13.548;2022-12-16T08:17:01;101019.38;;;-9.45;100.00
68594;BME280;55563;52.416;13.548;2022-12-16T08:19:22;101028.41;;;-9.52;100.00
68594;BME280;55563;52.416;13.548;2022-12-16T08:21:42;101032.66;;;-9.53;100.00
68594;BME280;55563;52.416;13.548;2022-12-16T08:24:03;101034.63;;;-9.45;100.00
68594;BME280;55563;52.416;13.548;2022-12-16T08:26:24;101029.41;;;-9.44;100.00
68594;BME280;55563;52.416;13.548;2022-12-16T08:28:44;101034.28;;;-9.41;100.00
68594;BME280;55563;52.416;13.548;2022-12-16T08:31:05;101035.53;;;-9.35;100.00
68594;BME280;55563;52.416;13.548;2022-12-16T08:33:26;101040.13;;;-9.29;100.00
68594;BME280;55563;52.416;13.548;2022-12-16T08:35:46;101026.81;;;-9.21;100.00
68594;BME280;55563;52.416;13.548;2022-12-16T08:38:07;101031.16;;;-9.12;100.00
68594;BME280;55563;52.416;13.548;2022-12-16T08:40:28;101035.97;;;-8.98;100.00
68594;BME280;55563;52.416;13.548;2022-12-16T08:42:48;101040.81;;;-8.95;100.00
68594;BME280;55563;52.416;13.548;2022-12-16T08:45:09;101031.09;;;-9.01;100.00
68594;BME280;55563;52.416;13.548;2022-12-16T08:47:30;101035.53;;;-9.03;100.00
68594;BME280;55563;52.416;13.548;2022-12-16T08:49:50;101029.63;;;-9.04;100.00
68594;BME280;55563;52.416;13.548;2022-12-16T08:52:11;101036.91;;;-8.99;100.00
68594;BME280;55563;52.416;13.548;2022-12-16T08:54:31;101040.50;;;-9.02;100.00
68594;BME280;55563;52.416;13.548;2022-12-16T08:56:52;101040.00;;;-8.96;100.00
68594;BME280;55563;52.416;13.548;2022-12-16T08:59:13;101035.81;;;-8.97;100.00
68594;BME280;55563;52.416;13.548;2022-12-16T09:01:34;101040.00;;;-8.96;100.00
68594;BME280;55563;52.416;13.548;2022-12-16T09:03:54;101048.22;;;-8.92;100.00
68594;BME280;55563;52.416;13.548;2022-12-16T09:06:15;101051.88;;;-8.85;100.00
68594;BME280;55563;52.416;13.548;2022-12-16T09:08:35;101049.75;;;-8.80;100.00
68594;BME280;55563;52.416;13.548;2022-12-16T09:11:00;101051.13;;;-8.76;100.00
68594;BME280;55563;52.416;13.548;2022-12-16T09:13:20;101043.31;;;-8.63;100.00
68594;BME280;55563;52.416;13.548;2022-12-16T09:15:41;101043.06;;;-8.60;100.00
68594;BME280;55563;52.416;13.548;2022-12-16T09:18:02;101051.56;;;-8.50;100.00
68594;BME280;55563;52.416;13.548;2022-12-16T09:20:22;101053.63;;;-8.44;100.00
68594;BME280;55563;52.416;13.548;2022-12-16T09:22:43;101051.13;;;-8.34;100.00
68594;BME280;55563;52.416;13.548;2022-12-16T09:25:04;101051.16;;;-8.25;100.00
68594;BME280;55563;52.416;13.548;2022-12-16T09:27:25;101049.81;;;-8.19;100.00
68594;BME280;55563;52.416;13.548;2022-12-16T09:29:45;101048.69;;;-8.06;100.00
68594;BME280;55563;52.416;13.548;2022-12-16T09:32:06;101052.75;;;-7.94;100.00
68594;BME280;55563;52.416;13.548;2022-12-16T09:34:27;101062.09;;;-7.73;100.00
68594;BME280;55563;52.416;13.548;2022-12-16T09:36:47;101061.78;;;-7.80;100.00
68594;BME280;55563;52.416;13.548;2022-12-16T09:39:08;101066.16;;;-7.61;100.00
68594;BME280;55563;52.416;13.548;2022-12-16T09:41:41;101059.63;;;-7.44;100.00
68594;BME280;55563;52.416;13.548;2022-12-16T09:44:10;101062.59;;;-7.30;100.00
68594;BME280;55563;52.416;13.548;2022-12-16T09:51:14;101059.38;;;-6.74;100.00
68594;BME280;55563;52.416;13.548;2022-12-16T09:53:36;101053.03;;;-6.70;100.00
68594;BME280;55563;52.416;13.548;2022-12-16T09:55:57;101065.38;;;-6.46;100.00
68594;BME280;55563;52.416;13.548;2022-12-16T09:58:22;101052.44;;;-6.35;100.00
68594;BME280;55563;52.416;13.548;2022-12-16T10:00:44;101061.72;;;-6.34;100.00
68594;BME280;55563;52.416;13.548;2022-12-16T10:03:13;101055.56;;;-5.95;100.00
68594;BME280;55563;52.416;13.548;2022-12-16T10:05:46;101053.06;;;-6.14;100.00
68594;BME280;55563;52.416;13.548;2022-12-16T10:10:55;101050.91;;;-6.19;100.00
68594;BME280;55563;52.416;13.548;2022-12-16T10:15:54;101051.75;;;-5.91;100.00
68594;BME280;55563;52.416;13.548;2022-12-16T10:21:07;101048.53;;;-5.75;100.00
68594;BME280;55563;52.416;13.548;2022-12-16T10:23:41;101043.34;;;-5.83;100.00
68594;BME280;55563;52.416;13.548;2022-12-16T10:26:11;101048.34;;;-5.64;100.00
68594;BME280;55563;52.416;13.548;2022-12-16T10:28:46;101043.66;;;-5.68;100.00
68594;BME280;55563;52.416;13.548;2022-12-16T10:31:12;101041.78;;;-5.66;100.00
68594;BME280;55563;52.416;13.548;2022-12-16T10:33:35;101039.72;;;-5.63;100.00
68594;BME280;55563;52.416;13.548;2022-12-16T10:35:56;101039.09;;;-5.47;100.00
68594;BME280;55563;52.416;13.548;2022-12-16T10:38:24;101038.75;;;-5.35;100.00
68594;BME280;55563;52.416;13.548;2022-12-16T10:40:48;101047.97;;;-5.24;100.00
68594;BME280;55563;52.416;13.548;2022-12-16T10:43:17;101050.97;;;-5.11;100.00
68594;BME280;55563;52.416;13.548;2022-12-16T10:45:42;101050.16;;;-5.11;100.00
68594;BME280;55563;52.416;13.548;2022-12-16T10:48:04;101052.59;;;-5.10;100.00
68594;BME280;55563;52.416;13.548;2022-12-16T10:50:24;101057.56;;;-4.91;100.00
68594;BME280;55563;52.416;13.548;2022-12-16T10:52:56;101054.75;;;-4.79;100.00
68594;BME280;55563;52.416;13.548;2022-12-16T10:55:35;101060.31;;;-4.66;100.00
68594;BME280;55563;52.416;13.548;2022-12-16T10:58:22;101053.09;;;-4.45;100.00
68594;BME280;55563;52.416;13.548;2022-12-16T11:00:47;101059.78;;;-4.52;100.00
68594;BME280;55563;52.416;13.548;2022-12-16T11:03:18;101063.06;;;-4.42;100.00
68594;BME280;55563;52.416;13.548;2022-12-16T11:05:39;101056.75;;;-4.22;100.00
68594;BME280;55563;52.416;13.548;2022-12-16T11:08:00;101052.25;;;-4.28;100.00
68594;BME280;55563;52.416;13.548;2022-12-16T11:10:42;101051.22;;;-4.35;100.00
68594;BME280;55563;52.416;13.548;2022-12-16T11:13:13;101051.06;;;-4.08;100.00
68594;BME280;55563;52.416;13.548;2022-12-16T11:15:35;101056.59;;;-3.86;100.00
68594;BME280;55563;52.416;13.548;2022-12-16T11:18:14;101052.75;;;-3.90;100.00
68594;BME280;55563;52.416;13.548;2022-12-16T11:20:35;101064.31;;;-3.86;100.00
68594;BME280;55563;52.416;13.548;2022-12-16T11:25:25;101062.09;;;-3.81;100.00
68594;BME280;55563;52.416;13.548;2022-12-16T11:27:46;101061.16;;;-3.72;100.00
68594;BME280;55563;52.416;13.548;2022-12-16T11:30:15;101060.91;;;-3.53;100.00
68594;BME280;55563;52.416;13.548;2022-12-16T11:32:38;101065.69;;;-3.58;100.00
68594;BME280;55563;52.416;13.548;2022-12-16T11:35:00;101073.13;;;-3.47;100.00
68594;BME280;55563;52.416;13.548;2022-12-16T11:37:23;101073.28;;;-3.40;100.00
68594;BME280;55563;52.416;13.548;2022-12-16T11:39:44;101074.09;;;-3.48;100.00
68594;BME280;55563;52.416;13.548;2022-12-16T11:42:11;101073.13;;;-3.47;100.00
68594;BME280;55563;52.416;13.548;2022-12-16T11:44:52;101075.56;;;-3.45;100.00
68594;BME280;55563;52.416;13.548;2022-12-16T11:47:21;101072.00;;;-3.44;100.00
68594;BME280;55563;52.416;13.548;2022-12-16T11:49:44;101082.63;;;-3.39;100.00
68594;BME280;55563;52.416;13.548;2022-12-16T11:52:07;101071.22;;;-3.37;100.00
68594;BME280;55563;52.416;13.548;2022-12-16T11:54:34;101077.00;;;-3.35;100.00
68594;BME280;55563;52.416;13.548;2022-12-16T11:56:58;101076.88;;;-3.25;100.00
68594;BME280;55563;52.416;13.548;2022-12-16T11:59:41;101079.28;;;-3.16;100.00